Time;durP1;ratioP1;P1;durP2;ratioP2;P2;SDS_P1;SDS_P2;PMS_P1;PMS_P2;Temp;Humidity;BMP_temperature;BMP_pressure;BME280_temperature;BME280_humidity;BME280_pressure;Samples;Min_cycle;Max_cycle;Signal;HPM_P1;HPM_P2
2021/03/27 00:02:34;;;;;;;23.90;14.38;;;;;;;6.73;62.78;97100.39;1742749;81;21560;-84
2021/03/27 00:05:24;;;;;;;30.40;19.12;;;;;;;6.75;62.56;97102.26;1746028;81;21114;-83
2021/03/27 00:08:06;;;;;;;30.52;19.60;;;;;;;6.76;62.61;97094.14;1737500;82;21197;-84
2021/03/27 00:10:47;;;;;;;26.97;16.05;;;;;;;6.74;62.63;97100.66;1738025;81;21110;-82
2021/03/27 00:13:34;;;;;;;21.73;14.35;;;;;;;6.72;62.70;97093.00;1747238;81;21154;-84
2021/03/27 00:16:18;;;;;;;26.95;16.62;;;;;;;6.69;62.59;97090.06;1727339;82;21503;-83
2021/03/27 00:19:03;;;;;;;26.23;17.42;;;;;;;6.66;62.67;97090.03;1729864;81;21127;-84
2021/03/27 00:21:53;;;;;;;23.67;15.13;;;;;;;6.64;62.68;97092.63;1736242;81;21511;-84
2021/03/27 00:24:54;;;;;;;23.25;14.90;;;;;;;6.60;62.76;97086.23;1751983;81;21127;-84
2021/03/27 00:27:26;;;;;;;29.42;18.10;;;;;;;6.57;62.91;97088.83;1732745;81;21132;-84
2021/03/27 00:30:01;;;;;;;27.22;15.93;;;;;;;6.55;62.87;97085.12;1729555;81;21135;-84
2021/03/27 00:32:48;;;;;;;24.80;17.50;;;;;;;6.58;62.86;97086.47;1744903;81;21499;-84
2021/03/27 00:35:32;;;;;;;30.15;18.00;;;;;;;6.56;62.88;97083.28;1751004;81;21119;-84
2021/03/27 00:38:03;;;;;;;28.65;18.45;;;;;;;6.58;62.87;97074.62;1753300;81;21168;-83
2021/03/27 00:40:35;;;;;;;27.95;17.35;;;;;;;6.59;62.71;97078.05;1739661;81;21503;-83
2021/03/27 00:43:11;;;;;;;28.60;18.65;;;;;;;6.58;62.71;97083.04;1732336;81;21133;-83
2021/03/27 00:45:51;;;;;;;25.72;18.00;;;;;;;6.62;62.68;97080.23;1741824;81;21484;-83
2021/03/27 00:48:33;;;;;;;;;;;;;;;6.64;62.63;97079.46;1737019;81;21210;-84
2021/03/27 00:51:05;;;;;;;18.87;13.38;;;;;;;6.61;62.67;97069.38;1733990;81;20124;-84
2021/03/27 00:53:41;;;;;;;22.40;13.10;;;;;;;6.63;62.60;97062.06;1750763;81;21527;-83
2021/03/27 00:56:17;;;;;;;21.87;12.15;;;;;;;6.70;62.40;97064.79;1744159;81;21161;-84
2021/03/27 00:58:58;;;;;;;24.75;13.20;;;;;;;6.74;62.13;97069.05;1734396;81;21118;-84
2021/03/27 01:01:29;;;;;;;23.00;10.78;;;;;;;6.76;62.01;97055.93;1736693;81;21148;-83
2021/03/27 01:04:01;;;;;;;25.77;16.05;;;;;;;6.75;61.99;97062.73;1740519;81;21159;-84
2021/03/27 01:06:39;;;;;;;26.65;16.62;;;;;;;6.75;62.06;97058.27;1743285;81;21143;-84
2021/03/27 01:09:08;;;;;;;25.70;15.75;;;;;;;6.76;62.04;97056.45;1747555;81;21145;-84
2021/03/27 01:11:46;;;;;;;24.00;14.68;;;;;;;6.78;61.90;97060.44;1738634;81;21500;-83
2021/03/27 01:14:25;;;;;;;24.37;16.35;;;;;;;6.79;61.87;97055.44;1744554;81;21473;-84
2021/03/27 01:16:57;;;;;;;24.90;16.93;;;;;;;6.80;61.77;97053.08;1748272;81;21204;-84
2021/03/27 01:19:32;;;;;;;28.40;18.45;;;;;;;6.83;61.75;97053.91;1734654;81;21123;-84
2021/03/27 01:22:04;;;;;;;23.70;15.45;;;;;;;6.87;61.71;97041.03;1734620;81;21538;-83
2021/03/27 01:24:32;;;;;;;30.30;17.95;;;;;;;6.86;61.70;97052.62;1740659;81;21495;-84
2021/03/27 01:27:23;;;;;;;31.23;19.00;;;;;;;6.81;61.71;97050.72;1733678;81;21547;-84
2021/03/27 01:30:02;;;;;;;;;;;;;;;6.80;61.79;97049.65;1745500;81;21154;-83
2021/03/27 01:32:55;;;;;;;26.52;14.63;;;;;;;6.82;61.66;97040.45;1747540;81;20145;-84
2021/03/27 01:35:46;;;;;;;29.15;18.23;;;;;;;6.88;61.63;97043.95;1849435;75;28571;-83
2021/03/27 01:38:24;;;;;;;24.63;16.40;;;;;;;6.88;61.39;97029.45;1815527;77;21107;-83
2021/03/27 01:41:18;;;;;;;22.30;14.03;;;;;;;6.95;61.17;97040.62;1840726;76;21136;-83
2021/03/27 01:44:13;;;;;;;26.90;15.83;;;;;;;6.96;61.22;97042.22;1803693;77;21103;-84
2021/03/27 01:46:57;;;;;;;30.02;19.10;;;;;;;6.90;61.31;97031.34;1801608;79;21463;-84
2021/03/27 01:49:48;;;;;;;26.87;15.10;;;;;;;6.88;61.43;97029.45;1744524;79;21115;-84
2021/03/27 01:52:42;;;;;;;22.32;14.78;;;;;;;6.86;61.38;97036.80;1777204;80;21160;-84
2021/03/27 01:55:49;;;;;;;22.25;12.68;;;;;;;6.84;61.33;97025.72;1787256;80;21080;-83
2021/03/27 01:58:36;;;;;;;24.47;14.80;;;;;;;6.86;61.25;97036.80;1787514;80;21115;-84
2021/03/27 02:01:17;;;;;;;17.32;10.75;;;;;;;6.89;61.21;97008.64;1779745;79;21285;-84
2021/03/27 02:03:54;;;;;;;23.20;13.18;;;;;;;6.89;61.07;97007.84;1777744;79;21277;-84
2021/03/27 02:06:39;;;;;;;30.62;18.85;;;;;;;6.91;61.13;97025.03;1757611;80;21123;-84
2021/03/27 02:09:37;;;;;;;26.48;17.23;;;;;;;6.85;61.25;97012.81;1781053;80;21084;-81
2021/03/27 02:12:32;;;;;;;28.12;18.20;;;;;;;6.82;61.24;97026.48;1760225;80;21298;-83
2021/03/27 02:15:16;;;;;;;20.37;11.90;;;;;;;6.83;61.38;97022.80;1778550;80;21071;-83
2021/03/27 02:17:57;;;;;;;22.60;11.22;;;;;;;6.84;61.19;97021.77;1777451;80;21124;-83
2021/03/27 02:21:00;;;;;;;23.83;14.53;;;;;;;6.86;61.09;96997.27;1773033;80;21241;-83
2021/03/27 02:24:17;;;;;;;26.27;15.58;;;;;;;6.91;61.13;97006.58;1774305;80;21112;-84
2021/03/27 02:27:16;;;;;;;27.93;16.50;;;;;;;6.93;60.94;97007.13;1780478;80;21118;-84
2021/03/27 02:30:09;;;;;;;29.42;15.03;;;;;;;6.89;60.94;97012.59;1763309;80;21130;-84
2021/03/27 02:33:13;;;;;;;24.10;14.93;;;;;;;6.88;60.96;96999.14;1770900;80;21092;-84
2021/03/27 02:35:54;;;;;;;25.48;13.95;;;;;;;6.93;60.64;97004.50;1784542;79;21491;-83
2021/03/27 02:38:54;;;;;;;20.88;11.78;;;;;;;7.02;60.29;97013.55;1792288;79;21101;-84
2021/03/27 02:41:52;;;;;;;26.75;15.23;;;;;;;7.04;60.02;97000.16;1794435;79;21127;-84
2021/03/27 02:44:33;;;;;;;24.27;14.30;;;;;;;7.20;59.62;97005.08;1805270;78;21128;-84
2021/03/27 02:47:11;;;;;;;27.40;17.73;;;;;;;7.21;59.39;97005.35;1792138;79;21517;-83
2021/03/27 02:49:47;;;;;;;22.50;10.82;;;;;;;7.17;59.56;97002.91;1777290;79;21496;-83
2021/03/27 02:52:55;;;;;;;21.33;11.93;;;;;;;7.07;59.75;96989.91;1804315;78;21455;-83
2021/03/27 02:55:36;;;;;;;18.75;10.25;;;;;;;7.02;59.74;97003.01;1776592;79;21489;-84
2021/03/27 02:58:31;;;;;;;25.80;17.45;;;;;;;7.01;59.67;96982.96;1772597;79;21154;-83
2021/03/27 03:01:21;;;;;;;26.80;17.23;;;;;;;7.10;59.63;97003.11;1799922;79;21141;-83
2021/03/27 03:04:16;;;;;;;27.17;18.15;;;;;;;7.03;59.77;97001.96;1801479;78;21154;-83
2021/03/27 03:07:10;;;;;;;20.25;13.22;;;;;;;6.94;59.92;97000.81;1808292;78;21117;-83
2021/03/27 03:10:01;;;;;;;27.13;17.80;;;;;;;6.91;60.03;96994.72;1750484;81;21083;-84
2021/03/27 03:12:43;;;;;;;;;;;;;;;6.88;60.13;96988.59;1789002;80;21107;-83
2021/03/27 03:15:35;;;;;;;26.65;14.60;;;;;;;6.84;60.13;96979.60;1775150;79;20355;-83
2021/03/27 03:18:25;;;;;;;25.08;15.50;;;;;;;6.85;60.07;96991.21;1765834;80;21246;-83
2021/03/27 03:21:00;;;;;;;19.37;11.50;;;;;;;6.83;60.08;96976.17;1762633;80;21170;-83
2021/03/27 03:23:44;;;;;;;17.92;10.43;;;;;;;6.80;60.17;96993.80;1766505;81;21114;-83
2021/03/27 03:26:39;;;;;;;19.75;10.48;;;;;;;6.86;59.88;96984.09;1781971;79;21475;-83
2021/03/27 03:29:17;;;;;;;18.15;10.32;;;;;;;6.90;59.63;96984.40;1782427;79;21114;-83
2021/03/27 03:32:34;;;;;;;22.27;10.88;;;;;;;6.91;59.62;96980.75;1791698;78;21245;-83
2021/03/27 03:35:32;;;;;;;18.52;11.68;;;;;;;6.98;59.29;96980.83;1772318;79;21102;-84
2021/03/27 03:38:29;;;;;;;16.17;10.88;;;;;;;6.97;59.41;96985.03;1764473;79;21149;-83
2021/03/27 03:41:22;;;;;;;18.48;11.38;;;;;;;6.88;59.72;96987.80;1781528;79;21150;-83
2021/03/27 03:44:20;;;;;;;24.10;12.33;;;;;;;6.72;60.21;96978.39;1774604;79;21115;-84
2021/03/27 03:47:20;;;;;;;22.42;14.33;;;;;;;6.66;60.32;96958.30;1781535;80;21571;-84
2021/03/27 03:50:18;;;;;;;24.80;14.85;;;;;;;6.64;60.58;96966.18;1785420;79;21487;-84
2021/03/27 03:53:27;;;;;;;22.25;13.62;;;;;;;6.60;60.57;96981.66;1768800;79;21139;-83
2021/03/27 03:56:18;;;;;;;19.17;10.95;;;;;;;6.52;60.81;96982.88;1763851;80;21230;-83
2021/03/27 03:59:11;;;;;;;16.15;9.60;;;;;;;6.52;60.80;96961.02;1766761;80;21460;-83
2021/03/27 04:01:52;;;;;;;24.25;14.63;;;;;;;6.55;60.71;96979.76;1758485;80;21123;-83
2021/03/27 04:04:29;;;;;;;22.65;11.90;;;;;;;6.50;60.85;96969.17;1767164;80;21621;-83
2021/03/27 04:07:05;;;;;;;25.10;15.30;;;;;;;6.47;60.78;96952.51;1765041;80;21106;-83
2021/03/27 04:09:55;;;;;;;29.27;17.92;;;;;;;6.52;60.84;96952.59;1768780;80;21101;-84
2021/03/27 04:12:34;;;;;;;;;;;;;;;6.53;60.74;96957.34;1772039;80;21173;-83
2021/03/27 04:15:34;;;;;;;19.37;12.43;;;;;;;6.48;60.86;96968.61;1764849;80;20123;-83
2021/03/27 04:18:12;;;;;;;17.57;10.23;;;;;;;6.43;61.13;96944.83;1781107;80;21137;-84
2021/03/27 04:21:27;;;;;;;24.43;15.15;;;;;;;6.38;61.12;96950.55;1782073;80;21104;-84
2021/03/27 04:24:21;;;;;;;19.40;11.43;;;;;;;6.38;61.11;96940.81;1785250;80;21145;-84
2021/03/27 04:26:52;;;;;;;25.27;15.88;;;;;;;6.38;61.15;96959.77;1716095;80;21132;-84
2021/03/27 04:29:40;;;;;;;25.45;15.45;;;;;;;6.37;61.27;96962.92;1785101;80;21488;-84
2021/03/27 04:32:30;;;;;;;20.23;10.28;;;;;;;6.34;61.24;96947.62;1789309;79;21139;-84
2021/03/27 04:35:04;;;;;;;;;;;;;;;6.36;61.20;96953.44;1767815;80;21267;-84
2021/03/27 04:37:36;;;;;;;26.93;15.85;;;;;;;6.35;61.10;96945.26;1759320;80;20116;-84
2021/03/27 04:40:11;;;;;;;24.18;15.18;;;;;;;6.41;61.07;96950.06;1777446;80;21147;-84
2021/03/27 04:43:13;;;;;;;17.98;9.20;;;;;;;6.50;60.88;96954.68;1762665;80;21120;-84
2021/03/27 04:45:48;;;;;;;22.48;14.30;;;;;;;6.57;60.57;96947.11;1770269;80;21175;-84
2021/03/27 04:48:44;;;;;;;24.80;16.77;;;;;;;6.80;60.07;96957.42;1799190;79;21284;-81
2021/03/27 04:51:38;;;;;;;24.32;13.72;;;;;;;7.00;59.78;96958.97;1787662;80;21479;-83
2021/03/27 04:54:46;;;;;;;27.17;15.10;;;;;;;7.31;58.57;96942.15;1761848;79;21096;-83
2021/03/27 04:57:24;;;;;;;21.82;15.10;;;;;;;7.51;58.16;96946.84;1763332;80;21092;-83
2021/03/27 05:00:12;;;;;;;23.65;15.60;;;;;;;7.80;57.49;96951.31;1759823;80;21136;-83
2021/03/27 05:03:20;;;;;;;26.00;16.57;;;;;;;7.99;57.11;96939.31;1769876;80;21500;-83
2021/03/27 05:06:35;;;;;;;23.25;15.85;;;;;;;8.27;56.48;96941.61;1759642;80;21108;-85
2021/03/27 05:09:48;;;;;;;23.87;15.18;;;;;;;8.52;55.29;96951.57;1699030;83;21185;-84
2021/03/27 05:12:23;;;;;;;19.75;12.65;;;;;;;8.81;54.01;96959.91;1719878;80;21154;-83
2021/03/27 05:15:26;;;;;;;26.23;14.73;;;;;;;8.88;53.48;96954.40;1746400;80;21180;-83
2021/03/27 05:18:35;;;;;;;20.23;14.40;;;;;;;9.07;53.95;96952.08;1771228;80;21556;-83
2021/03/27 05:21:16;;;;;;;17.85;12.20;;;;;;;9.45;52.68;96943.72;1760794;80;21193;-84
2021/03/27 05:24:03;;;;;;;23.22;15.90;;;;;;;9.64;52.08;96952.47;1757211;79;21123;-84
2021/03/27 05:26:45;;;;;;;20.95;13.85;;;;;;;9.79;52.18;96947.17;1779417;79;21135;-84
2021/03/27 05:29:34;;;;;;;24.23;16.97;;;;;;;9.95;50.75;96954.06;1764663;79;21129;-84
2021/03/27 05:32:26;;;;;;;23.80;14.33;;;;;;;10.20;50.78;96941.87;1763172;79;21096;-84
2021/03/27 05:34:57;;;;;;;22.37;15.80;;;;;;;10.43;49.57;96940.01;1759875;79;21175;-84
2021/03/27 05:37:42;;;;;;;20.80;14.85;;;;;;;10.61;49.18;96942.61;1755685;80;21582;-84
2021/03/27 05:40:37;;;;;;;20.20;13.38;;;;;;;10.92;48.01;96935.33;1783431;80;21138;-84
2021/03/27 05:43:38;;;;;;;23.05;14.68;;;;;;;11.26;47.95;96933.59;1769470;80;21512;-83
2021/03/27 05:46:32;;;;;;;21.62;14.18;;;;;;;11.47;47.22;96944.07;1770487;79;21134;-83
2021/03/27 05:49:46;;;;;;;20.77;15.50;;;;;;;11.70;46.93;96945.26;1759777;80;21159;-84
2021/03/27 05:52:31;;;;;;;21.52;15.32;;;;;;;11.97;46.27;96946.14;1772818;79;21134;-84
2021/03/27 05:55:25;;;;;;;22.20;14.20;;;;;;;12.23;46.00;96934.20;1795732;78;21495;-83
2021/03/27 05:58:31;;;;;;;19.10;13.28;;;;;;;12.46;44.61;96932.11;1813951;78;21597;-84
2021/03/27 06:01:24;;;;;;;20.30;14.80;;;;;;;12.62;44.60;96926.62;1757322;80;21678;-84
2021/03/27 06:04:06;;;;;;;21.75;15.40;;;;;;;13.39;44.26;96935.30;1773591;78;21137;-84
2021/03/27 06:07:04;;;;;;;19.25;14.38;;;;;;;13.48;42.34;96932.21;1786169;80;21184;-83
2021/03/27 06:10:08;;;;;;;17.48;12.45;;;;;;;13.27;42.69;96941.58;1768123;80;21136;-84
2021/03/27 06:12:50;;;;;;;18.23;12.10;;;;;;;13.79;42.03;96937.08;1784756;80;21142;-84
2021/03/27 06:15:55;;;;;;;17.42;12.95;;;;;;;13.87;40.84;96932.44;1775794;79;21107;-83
2021/03/27 06:19:04;;;;;;;18.42;13.95;;;;;;;14.04;41.35;96935.34;1700321;83;21125;-84
2021/03/27 06:22:28;;;;;;;19.23;14.28;;;;;;;14.40;40.93;96946.20;1777240;78;21143;-84
2021/03/27 06:25:22;;;;;;;19.90;13.68;;;;;;;14.78;40.41;96944.20;1773058;78;21494;-83
2021/03/27 06:28:10;;;;;;;20.20;14.10;;;;;;;15.25;40.52;96935.50;1774417;80;21156;-84
2021/03/27 06:31:16;;;;;;;19.62;14.65;;;;;;;15.67;38.84;96942.89;1774238;80;21186;-84
2021/03/27 06:34:24;;;;;;;18.75;14.28;;;;;;;15.96;38.46;96929.91;1771488;80;21096;-84
2021/03/27 06:37:25;;;;;;;17.95;12.30;;;;;;;16.43;37.64;96939.69;1760177;80;21162;-84
2021/03/27 06:40:23;;;;;;;20.27;14.78;;;;;;;15.63;37.29;96932.03;1762759;80;21136;-83
2021/03/27 06:43:45;;;;;;;18.10;13.62;;;;;;;13.80;40.11;96933.36;1758698;79;21190;-84
2021/03/27 06:46:47;;;;;;;20.27;15.23;;;;;;;13.69;40.61;96951.91;1756920;80;21112;-84
2021/03/27 06:49:39;;;;;;;20.12;15.20;;;;;;;12.63;42.05;96944.96;1724279;82;21519;-85
2021/03/27 06:52:39;;;;;;;20.37;15.15;;;;;;;13.24;43.59;96932.84;1758907;80;21129;-84
2021/03/27 06:55:33;;;;;;;17.45;13.68;;;;;;;14.33;41.86;96939.66;1772815;79;21143;-84
2021/03/27 06:58:42;;;;;;;18.57;13.55;;;;;;;15.82;39.55;96937.73;1768521;79;21156;-85
2021/03/27 07:01:43;;;;;;;17.70;13.62;;;;;;;16.89;37.85;96929.11;1759602;80;21262;-85
2021/03/27 07:04:44;;;;;;;;;;;;;;;17.62;37.00;96933.42;1761448;80;21107;-85
2021/03/27 07:07:31;;;;;;;;;;;;;;;18.12;36.78;96936.95;1767888;80;20214;-85
2021/03/27 07:10:10;;;;;;;15.50;11.93;;;;;;;18.80;35.19;96934.65;1773930;80;20366;-85
2021/03/27 07:13:03;;;;;;;17.45;13.95;;;;;;;19.30;33.89;96941.98;1787243;79;21250;-85
2021/03/27 07:16:02;;;;;;;21.48;15.32;;;;;;;19.42;33.63;96926.45;1788730;79;21108;-85
2021/03/27 07:18:59;;;;;;;18.85;14.13;;;;;;;19.57;33.57;96927.27;1760210;80;21466;-85
2021/03/27 07:21:51;;;;;;;17.62;13.25;;;;;;;19.79;32.73;96922.09;1780143;80;21110;-84
2021/03/27 07:24:52;;;;;;;15.98;13.70;;;;;;;19.99;32.60;96939.35;1765176;80;21513;-85
2021/03/27 07:27:45;;;;;;;18.30;14.95;;;;;;;19.63;33.01;96925.16;1767280;79;21164;-84
2021/03/27 07:30:34;;;;;;;17.35;14.25;;;;;;;20.04;33.56;96926.47;1767138;80;21398;-84
2021/03/27 07:33:35;;;;;;;17.85;13.65;;;;;;;19.89;32.26;96935.72;1767445;80;21488;-85
2021/03/27 07:37:00;;;;;;;19.52;14.55;;;;;;;19.59;32.48;96923.70;1756474;80;21176;-84
2021/03/27 07:39:59;;;;;;;17.45;13.68;;;;;;;18.59;33.40;96930.53;1764488;80;21107;-84
2021/03/27 07:43:10;;;;;;;20.27;14.28;;;;;;;17.60;34.47;96931.06;1771681;80;21122;-84
2021/03/27 07:45:59;;;;;;;16.27;12.40;;;;;;;17.27;35.22;96936.06;1763882;80;21269;-84
2021/03/27 07:49:08;;;;;;;17.92;13.05;;;;;;;18.46;34.07;96942.81;1767815;80;21104;-84
2021/03/27 07:51:53;;;;;;;16.65;13.58;;;;;;;17.45;34.70;96936.86;1762445;80;21564;-85
2021/03/27 07:54:54;;;;;;;18.65;14.03;;;;;;;18.55;34.97;96940.88;1779402;79;21150;-84
2021/03/27 07:57:59;;;;;;;17.52;13.65;;;;;;;18.74;35.00;96943.22;1775220;79;21072;-84
2021/03/27 08:00:46;;;;;;;17.48;12.03;;;;;;;20.59;34.48;96933.92;1761517;80;21084;-84
2021/03/27 08:03:33;;;;;;;18.60;13.30;;;;;;;21.28;31.10;96937.89;1765239;80;21515;-84
2021/03/27 08:06:28;;;;;;;16.90;13.40;;;;;;;21.60;30.75;96936.14;1784722;79;21138;-84
2021/03/27 08:09:10;;;;;;;16.10;13.45;;;;;;;22.33;30.04;96942.40;1757186;80;21080;-84
2021/03/27 08:12:19;;;;;;;15.00;12.53;;;;;;;23.07;30.03;96934.81;1763139;79;21480;-84
2021/03/27 08:15:37;;;;;;;14.45;12.20;;;;;;;24.05;30.18;96931.69;1759765;80;21085;-83
2021/03/27 08:18:09;;;;;;;17.32;12.63;;;;;;;24.53;28.78;96923.52;1757029;80;21112;-84
2021/03/27 08:20:58;;;;;;;14.35;11.55;;;;;;;24.41;26.51;96933.95;1783356;79;21128;-83
2021/03/27 08:23:52;;;;;;;14.10;10.72;;;;;;;24.21;26.10;96922.89;1796752;79;21511;-84
2021/03/27 08:26:47;;;;;;;13.58;10.32;;;;;;;24.13;26.04;96928.77;1760266;80;21192;-84
2021/03/27 08:29:42;;;;;;;16.30;11.70;;;;;;;24.52;26.89;96926.02;1766637;80;21435;-84
2021/03/27 08:32:39;;;;;;;13.40;10.40;;;;;;;24.70;25.73;96926.31;1778541;80;21502;-84
2021/03/27 08:35:27;;;;;;;14.87;10.93;;;;;;;23.32;26.04;96919.15;1776025;79;21138;-83
2021/03/27 08:38:25;;;;;;;15.40;9.98;;;;;;;21.17;26.04;96905.73;1768844;79;21116;-83
2021/03/27 08:41:26;;;;;;;12.60;8.63;;;;;;;20.37;25.99;96922.39;1761682;80;21125;-83
2021/03/27 08:44:24;;;;;;;14.50;10.28;;;;;;;20.37;25.99;96922.39;1783202;79;21107;-84
2021/03/27 08:47:19;;;;;;;15.83;11.50;;;;;;;20.10;26.77;96926.47;1765082;79;21472;-84
2021/03/27 08:50:15;;;;;;;15.95;9.88;;;;;;;20.58;27.76;96924.27;1800470;79;21084;-84
2021/03/27 08:53:16;;;;;;;16.77;10.25;;;;;;;20.87;27.17;96920.59;1775587;80;21111;-81
2021/03/27 08:55:52;;;;;;;;;;;;;;;20.96;26.94;96923.38;1771681;79;21484;-81
2021/03/27 08:58:46;;;;;;;16.12;11.15;;;;;;;20.95;26.78;96918.33;1770113;80;20151;-81
2021/03/27 09:01:27;;;;;;;17.17;12.13;;;;;;;20.53;26.45;96920.43;1774391;80;21142;-82
2021/03/27 09:04:37;;;;;;;15.93;10.50;;;;;;;20.27;27.80;96916.11;1762471;80;21103;-84
2021/03/27 09:07:38;;;;;;;14.20;9.50;;;;;;;19.95;27.37;96910.16;1778265;80;21463;-84
2021/03/27 09:10:32;;;;;;;16.65;11.28;;;;;;;19.40;28.02;96917.94;1781993;80;21507;-84
2021/03/27 09:13:27;;;;;;;16.75;11.75;;;;;;;18.76;29.28;96912.23;1784989;80;21080;-83
2021/03/27 09:16:39;;;;;;;19.37;12.20;;;;;;;18.02;29.89;96916.63;1766896;80;21156;-83
2021/03/27 09:19:52;;;;;;;16.90;11.53;;;;;;;17.50;30.33;96917.97;1781105;80;21108;-83
2021/03/27 09:23:03;;;;;;;14.73;10.55;;;;;;;17.12;31.68;96904.36;1768395;80;21119;-83
2021/03/27 09:26:11;;;;;;;17.67;11.60;;;;;;;17.07;32.29;96902.62;1767505;80;21111;-84
2021/03/27 09:28:53;;;;;;;17.37;11.45;;;;;;;17.12;32.69;96908.38;1775551;80;21102;-84
2021/03/27 09:32:02;;;;;;;15.55;10.20;;;;;;;16.84;33.57;96905.16;1778084;80;21145;-82
2021/03/27 09:35:07;;;;;;;16.82;11.12;;;;;;;16.91;33.26;96912.20;1780681;80;21170;-84
2021/03/27 09:37:48;;;;;;;16.00;10.40;;;;;;;16.86;33.80;96930.52;1789937;79;21147;-84
2021/03/27 09:40:29;;;;;;;19.35;12.23;;;;;;;16.86;32.99;96917.69;1783536;80;21127;-84
2021/03/27 09:43:28;;;;;;;18.73;12.28;;;;;;;16.89;34.23;96907.69;1785637;79;21507;-84
2021/03/27 09:46:15;;;;;;;14.87;10.05;;;;;;;16.86;33.19;96910.98;1797580;79;21130;-84
2021/03/27 09:49:35;;;;;;;18.95;11.35;;;;;;;16.73;34.36;96907.88;1788254;79;21155;-84
2021/03/27 09:52:17;;;;;;;13.80;10.20;;;;;;;16.56;33.92;96903.22;1791267;79;21127;-84
2021/03/27 09:55:01;;;;;;;19.82;13.83;;;;;;;16.56;35.01;96888.50;1774909;80;21148;-84
2021/03/27 09:57:49;;;;;;;19.62;13.53;;;;;;;16.66;35.38;96903.50;1781565;79;21125;-84
2021/03/27 10:00:44;;;;;;;19.67;13.08;;;;;;;16.64;35.09;96914.52;1777330;80;21152;-84
2021/03/27 10:03:31;;;;;;;18.67;11.93;;;;;;;16.80;34.85;96896.17;1787258;79;21118;-85
2021/03/27 10:06:13;;;;;;;18.73;10.60;;;;;;;17.11;35.20;96905.46;1774182;79;21112;-85
2021/03/27 10:09:12;;;;;;;19.15;12.28;;;;;;;17.13;35.24;96910.73;1796935;79;21103;-85
2021/03/27 10:11:43;;;;;;;16.70;12.20;;;;;;;16.95;34.08;96894.95;1785015;79;21522;-85
2021/03/27 10:14:15;;;;;;;17.95;12.70;;;;;;;16.79;34.96;96903.97;1776205;79;21528;-83
2021/03/27 10:16:59;;;;;;;19.00;12.78;;;;;;;16.55;35.16;96910.46;1775844;80;21129;-83
2021/03/27 10:19:34;;;;;;;21.57;13.93;;;;;;;16.38;35.33;96921.09;1773347;80;21183;-83
2021/03/27 10:22:25;;;;;;;22.80;13.53;;;;;;;16.10;36.06;96910.32;1774962;80;21150;-83
2021/03/27 10:25:22;;;;;;;22.25;12.15;;;;;;;15.89;36.30;96907.34;1772109;80;21160;-83
2021/03/27 10:28:07;;;;;;;19.35;11.80;;;;;;;15.94;36.40;96909.91;1788697;80;21163;-83
2021/03/27 10:30:45;;;;;;;18.85;12.55;;;;;;;16.06;36.29;96900.00;1797648;78;21109;-82
2021/03/27 10:33:26;;;;;;;22.80;13.38;;;;;;;16.04;36.01;96912.31;1772971;80;21486;-82
2021/03/27 10:36:11;;;;;;;15.95;11.25;;;;;;;16.15;36.09;96898.14;1768768;79;21174;-82
2021/03/27 10:38:49;;;;;;;19.32;12.47;;;;;;;16.50;37.07;96893.77;1763125;80;21266;-83
2021/03/27 10:41:45;;;;;;;17.37;11.70;;;;;;;16.72;35.84;96904.95;1773262;79;21579;-83
2021/03/27 10:44:29;;;;;;;16.93;11.90;;;;;;;16.88;35.86;96902.09;1759146;79;21591;-83
2021/03/27 10:47:09;;;;;;;17.52;11.25;;;;;;;17.08;35.88;96900.18;1765597;79;21257;-83
2021/03/27 10:50:02;;;;;;;16.57;10.25;;;;;;;17.22;35.20;96896.03;1783146;80;21517;-83
2021/03/27 10:53:08;;;;;;;13.65;7.15;;;;;;;17.40;35.55;96900.29;1767431;80;21123;-83
2021/03/27 10:56:03;;;;;;;15.98;9.35;;;;;;;17.45;33.83;96892.11;1773320;80;21104;-83
2021/03/27 10:58:51;;;;;;;16.60;10.43;;;;;;;17.27;34.02;96887.83;1766011;80;21165;-83
2021/03/27 11:01:29;;;;;;;17.42;12.10;;;;;;;17.37;35.06;96888.08;1758756;80;21158;-83
2021/03/27 11:04:25;;;;;;;13.85;8.95;;;;;;;17.42;35.39;96887.91;1752815;79;21445;-83
2021/03/27 11:07:24;;;;;;;13.88;7.50;;;;;;;17.44;35.08;96883.81;1755806;81;21158;-85
2021/03/27 11:10:15;;;;;;;14.70;9.45;;;;;;;17.41;33.46;96867.58;1756520;81;21141;-85
2021/03/27 11:12:52;;;;;;;;;;;;;;;17.03;33.77;96880.25;1777963;79;21129;-85
2021/03/27 11:15:39;;;;;;;12.18;8.73;;;;;;;16.61;33.29;96886.49;1756558;79;20156;-84
2021/03/27 11:18:49;;;;;;;16.00;9.43;;;;;;;16.38;34.55;96874.27;1759650;80;21115;-85
2021/03/27 11:22:06;;;;;;;16.82;9.25;;;;;;;16.16;35.50;96879.66;1767578;80;21146;-85
2021/03/27 11:25:13;;;;;;;15.70;7.83;;;;;;;15.95;35.85;96888.22;1777524;80;21622;-84
2021/03/27 11:28:01;;;;;;;15.00;8.85;;;;;;;16.13;35.59;96888.31;1729309;79;21109;-84
2021/03/27 11:30:49;;;;;;;18.90;12.30;;;;;;;16.29;36.41;96881.45;1780363;79;21209;-84
2021/03/27 11:33:43;;;;;;;13.60;8.50;;;;;;;16.40;35.91;96865.38;1787629;79;21095;-85
2021/03/27 11:36:30;;;;;;;14.93;8.63;;;;;;;16.62;35.21;96877.36;1788397;79;21164;-85
2021/03/27 11:39:14;;;;;;;14.65;9.33;;;;;;;16.83;35.04;96879.48;1772858;79;21133;-84
2021/03/27 11:41:56;;;;;;;11.97;7.35;;;;;;;16.76;34.91;96874.59;1768153;80;21688;-85
2021/03/27 11:44:45;;;;;;;11.97;7.80;;;;;;;16.57;34.51;96886.84;1771274;80;21149;-84
2021/03/27 11:47:32;;;;;;;13.30;8.63;;;;;;;16.46;34.85;96887.43;1752079;80;21129;-84
2021/03/27 11:50:22;;;;;;;11.97;7.45;;;;;;;16.50;34.39;96881.17;1769703;79;21128;-85
2021/03/27 11:53:34;;;;;;;13.85;8.75;;;;;;;16.60;34.01;96880.87;1770595;79;21127;-85
2021/03/27 11:56:21;;;;;;;11.08;7.53;;;;;;;16.71;35.07;96879.29;1757289;79;21106;-84
2021/03/27 12:02:14;;;;;;;12.80;6.97;;;;;;;17.03;34.21;96888.81;1784488;79;21518;-84
2021/03/27 12:04:49;;;;;;;15.05;7.70;;;;;;;16.98;33.39;96882.27;1772445;79;21103;-84
2021/03/27 12:07:40;;;;;;;11.75;7.60;;;;;;;16.81;32.40;96855.70;1778098;80;21118;-85
2021/03/27 12:10:36;;;;;;;;;;;;;;;16.68;33.63;96882.59;1752135;79;21148;-85
2021/03/27 12:13:09;;;;;;;10.50;6.83;;;;;;;16.85;32.93;96871.38;1781274;80;20152;-84
2021/03/27 12:16:12;;;;;;;12.37;7.78;;;;;;;16.93;34.21;96876.52;1779040;79;21072;-85
2021/03/27 12:22:23;;;;;;;13.80;7.12;;;;;;;16.96;33.75;96888.49;1840088;76;23736;-84
2021/03/27 12:25:14;;;;;;;11.00;6.58;;;;;;;16.74;32.59;96871.97;1766194;80;21149;-84
2021/03/27 12:27:44;;;;;;;;;;;;;;;16.34;33.41;96866.63;1755184;80;21117;-84
2021/03/27 12:30:48;;;;;;;13.18;8.43;;;;;;;16.02;34.23;96883.75;1748839;80;20162;-84
2021/03/27 12:33:39;;;;;;;11.88;7.78;;;;;;;16.03;35.01;96892.02;1760886;80;21504;-85
2021/03/27 12:36:20;;;;;;;12.47;7.92;;;;;;;16.01;33.77;96893.66;1756548;80;21136;-85
2021/03/27 12:39:17;;;;;;;12.23;7.70;;;;;;;15.89;33.81;96898.77;1770647;80;21128;-84
2021/03/27 12:41:52;;;;;;;11.03;7.53;;;;;;;15.85;34.22;96893.80;1749125;80;21137;-84
2021/03/27 12:44:24;;;;;;;14.15;8.08;;;;;;;15.88;34.50;96891.06;1757169;80;21117;-84
2021/03/27 12:47:21;;;;;;;11.12;8.00;;;;;;;15.81;34.28;96898.19;1761531;80;21146;-84
2021/03/27 12:50:10;;;;;;;9.03;5.62;;;;;;;15.83;34.87;96898.67;1768508;80;21102;-84
2021/03/27 12:53:07;;;;;;;14.13;9.10;;;;;;;15.94;33.90;96883.17;1738830;80;21165;-84
2021/03/27 12:56:04;;;;;;;14.13;7.83;;;;;;;15.97;35.05;96891.91;1747465;80;21512;-83
2021/03/27 12:58:45;;;;;;;15.30;9.45;;;;;;;15.91;34.31;96881.12;1753791;80;21465;-84
2021/03/27 13:01:47;;;;;;;11.08;7.47;;;;;;;15.84;35.44;96888.77;1766275;80;21097;-84
2021/03/27 13:04:45;;;;;;;12.82;7.40;;;;;;;15.97;35.32;96884.69;1775637;80;21502;-84
2021/03/27 13:07:18;;;;;;;11.55;6.28;;;;;;;16.08;35.21;96887.11;1745657;80;21138;-84
2021/03/27 13:10:41;;;;;;;8.15;5.20;;;;;;;16.01;34.44;96881.63;1770712;80;21540;-84
2021/03/27 13:13:28;;;;;;;12.03;8.00;;;;;;;15.87;33.42;96879.58;1770163;80;21112;-84
2021/03/27 13:16:35;;;;;;;12.05;6.03;;;;;;;15.69;34.81;96877.34;1711586;80;21524;-85
2021/03/27 13:19:39;;;;;;;9.35;5.83;;;;;;;15.62;34.44;96878.33;1757501;80;21136;-84
2021/03/27 13:22:26;;;;;;;9.95;6.37;;;;;;;15.54;33.98;96881.69;1777094;80;21153;-84